TAF and METAR

METAR for Bom Jesus da Lapa Airport

SBLP 292200Z AUTO 18006KT CAVOK 20/14 Q1018
Report created 30. mai 00:00
report generated by an automatic observation system. wind 6 knots from S (180°) Clear sky Temperature 20° with dewpoint at 14° (Humidity 68.41%) Pressure 1018 hPa
No TAF available for Bom Jesus da Lapa Airport